Time;durP1;ratioP1;P1;durP2;ratioP2;P2;SDS_P1;SDS_P2;PMS_P1;PMS_P2;Temp;Humidity;BMP_temperature;BMP_pressure;BME280_temperature;BME280_humidity;BME280_pressure;Samples;Min_cycle;Max_cycle;Signal;HPM_P1;HPM_P2
2021/04/25 00:01:23;;;;;;;10.60;4.67;;;6.50;81.20;;;;;;4979261;28;20382;-80
2021/04/25 00:03:50;;;;;;;13.73;6.43;;;6.50;81.50;;;;;;5030356;28;20042;-82
2021/04/25 00:06:16;;;;;;;13.20;4.53;;;6.50;81.50;;;;;;4992653;28;20040;-81
2021/04/25 00:08:42;;;;;;;14.00;6.33;;;6.60;81.60;;;;;;4991555;28;20516;-81
2021/04/25 00:11:09;;;;;;;11.87;5.83;;;6.60;81.90;;;;;;4993635;28;20044;-80
2021/04/25 00:13:36;;;;;;;12.20;4.87;;;6.60;82.00;;;;;;4988592;28;20038;-81
2021/04/25 00:16:02;;;;;;;10.33;4.67;;;6.60;81.70;;;;;;5009258;28;20049;-81
2021/04/25 00:18:29;;;;;;;12.17;4.77;;;6.60;81.60;;;;;;4992160;28;20493;-83
2021/04/25 00:20:55;;;;;;;11.13;5.17;;;6.70;82.40;;;;;;5009901;28;20054;-82
2021/04/25 00:23:22;;;;;;;10.27;5.90;;;6.70;81.70;;;;;;5017489;28;20037;-82
2021/04/25 00:25:57;;;;;;;9.27;4.00;;;6.70;81.70;;;;;;5031715;28;20029;-81
2021/04/25 00:28:23;;;;;;;9.30;4.37;;;6.80;81.50;;;;;;5006277;28;20065;-81
2021/04/25 00:30:50;;;;;;;12.57;5.40;;;6.80;81.30;;;;;;5054189;28;20091;-81
2021/04/25 00:33:16;;;;;;;8.20;4.57;;;6.80;81.30;;;;;;5042776;28;20482;-81
2021/04/25 00:35:43;;;;;;;9.73;5.17;;;6.80;81.20;;;;;;5012658;28;20399;-82
2021/04/25 00:38:10;;;;;;;8.53;4.80;;;6.70;81.20;;;;;;5020306;28;20048;-81
2021/04/25 00:40:37;;;;;;;9.73;4.50;;;6.80;81.10;;;;;;5008231;28;20090;-81
2021/04/25 00:43:03;;;;;;;9.80;4.80;;;6.70;81.20;;;;;;5041304;28;20049;-82
2021/04/25 00:45:30;;;;;;;6.20;3.40;;;6.60;81.10;;;;;;5012357;28;20037;-81
2021/04/25 00:48:04;;;;;;;9.73;4.50;;;6.60;81.10;;;;;;5012331;28;20430;-80
2021/04/25 00:50:30;;;;;;;7.77;4.07;;;6.50;81.10;;;;;;5011075;28;20045;-80
2021/04/25 00:53:02;;;;;;;9.30;4.40;;;6.40;81.30;;;;;;5043279;28;20863;-80
2021/04/25 00:55:30;;;;;;;7.60;4.00;;;6.30;81.60;;;;;;5035407;28;21061;-80
2021/04/25 00:57:57;;;;;;;11.13;5.37;;;6.20;81.60;;;;;;5010609;28;20051;-80
2021/04/25 01:00:26;;;;;;;9.10;4.60;;;6.10;82.20;;;;;;5030350;28;20047;-80
2021/04/25 01:02:52;;;;;;;11.43;4.60;;;6.00;82.50;;;;;;5008973;28;20041;-83
2021/04/25 01:05:21;;;;;;;9.60;4.20;;;5.90;82.90;;;;;;5012332;28;20040;-81
2021/04/25 01:07:48;;;;;;;8.70;4.50;;;5.80;82.90;;;;;;5027193;28;20067;-81
2021/04/25 01:10:16;;;;;;;9.93;4.33;;;5.70;83.10;;;;;;4993813;28;20037;-82
2021/04/25 01:12:44;;;;;;;9.10;4.23;;;5.70;83.40;;;;;;5042181;28;20045;-78
2021/04/25 01:15:14;;;;;;;8.87;3.80;;;5.60;83.70;;;;;;5042600;28;20040;-80
2021/04/25 01:17:43;;;;;;;7.60;3.70;;;5.50;83.60;;;;;;5049419;28;20487;-82
2021/04/25 01:20:12;;;;;;;10.23;4.00;;;5.50;83.60;;;;;;5030258;28;20478;-80
2021/04/25 01:22:39;;;;;;;7.20;3.07;;;5.40;83.60;;;;;;5025291;28;20061;-83
2021/04/25 01:25:08;;;;;;;6.97;3.60;;;5.30;83.40;;;;;;5027435;28;20033;-81
2021/04/25 01:27:34;;;;;;;6.77;2.90;;;5.30;83.50;;;;;;5022998;28;20410;-80
2021/04/25 01:30:03;;;;;;;8.73;3.10;;;5.30;83.60;;;;;;5017579;28;20040;-82
2021/04/25 01:32:29;;;;;;;9.60;3.53;;;5.30;83.60;;;;;;5025074;28;20620;-82
2021/04/25 01:34:56;;;;;;;8.80;3.07;;;5.20;83.70;;;;;;5004283;28;20041;-82
2021/04/25 01:37:23;;;;;;;6.50;2.50;;;5.10;83.60;;;;;;4973649;28;20397;-82
2021/04/25 01:39:50;;;;;;;7.63;3.10;;;5.10;83.90;;;;;;5009214;28;20056;-81
2021/04/25 01:42:17;;;;;;;5.20;2.90;;;5.00;83.80;;;;;;5006977;28;20396;-82
2021/04/25 01:44:44;;;;;;;7.60;3.30;;;5.00;83.70;;;;;;5008610;28;20037;-83
2021/04/25 01:47:11;;;;;;;10.17;3.17;;;5.00;83.70;;;;;;5028125;28;20038;-82
2021/04/25 01:49:37;;;;;;;10.17;3.07;;;5.00;83.60;;;;;;5013953;28;20041;-82
2021/04/25 01:52:04;;;;;;;11.17;3.40;;;5.00;83.70;;;;;;4997411;28;20054;-80
2021/04/25 01:54:30;;;;;;;7.40;2.93;;;5.10;83.80;;;;;;5026991;28;20124;-81
2021/04/25 01:57:05;;;;;;;7.60;3.17;;;5.10;83.50;;;;;;5024676;28;20052;-81
2021/04/25 01:59:33;;;;;;;7.13;2.40;;;5.10;83.40;;;;;;5025935;28;20064;-81
2021/04/25 02:02:00;;;;;;;8.93;3.60;;;5.10;83.20;;;;;;4978052;28;20049;-81
2021/04/25 02:04:35;;;;;;;8.43;3.77;;;5.10;83.10;;;;;;5026636;28;20045;-81
2021/04/25 02:07:08;;;;;;;7.10;2.50;;;5.10;83.00;;;;;;5010616;28;20492;-80
2021/04/25 02:09:35;;;;;;;7.07;2.63;;;5.10;82.90;;;;;;5022290;28;20050;-81
2021/04/25 02:12:01;;;;;;;7.20;2.87;;;5.10;82.70;;;;;;4978704;28;20037;-80
2021/04/25 02:14:28;;;;;;;5.80;2.00;;;5.10;83.20;;;;;;5007269;28;20041;-81
2021/04/25 02:16:55;;;;;;;7.57;2.90;;;5.10;82.60;;;;;;5009940;28;20058;-81
2021/04/25 02:19:21;;;;;;;6.33;2.10;;;5.10;82.30;;;;;;4995003;28;20048;-81
2021/04/25 02:21:48;;;;;;;10.20;3.67;;;5.10;82.90;;;;;;5042721;28;20400;-80
2021/04/25 02:24:14;;;;;;;10.43;4.03;;;5.10;82.60;;;;;;5008121;28;20044;-80
2021/04/25 02:26:42;;;;;;;9.10;2.43;;;5.00;82.50;;;;;;5026980;28;20042;-81
2021/04/25 02:29:08;;;;;;;8.77;2.90;;;5.00;82.50;;;;;;5003983;28;20038;-81
2021/04/25 02:31:35;;;;;;;6.33;2.20;;;5.00;82.40;;;;;;4993543;28;20399;-80
2021/04/25 02:34:01;;;;;;;4.73;2.07;;;4.90;82.40;;;;;;5008538;28;20484;-81
2021/04/25 02:36:28;;;;;;;9.90;2.67;;;4.90;82.50;;;;;;5026098;28;20495;-80
2021/04/25 02:38:54;;;;;;;4.57;1.87;;;4.90;82.60;;;;;;5008005;28;20048;-82
2021/04/25 02:41:21;;;;;;;4.20;2.00;;;4.80;82.50;;;;;;4993527;28;20041;-81
2021/04/25 02:43:47;;;;;;;4.53;2.03;;;4.80;82.40;;;;;;5027496;28;20576;-81
2021/04/25 02:46:14;;;;;;;4.90;1.83;;;4.70;83.00;;;;;;4994393;28;20038;-81
2021/04/25 02:48:40;;;;;;;3.83;1.40;;;4.70;82.40;;;;;;5009048;28;20036;-82
2021/04/25 02:51:07;;;;;;;7.10;1.70;;;4.70;82.30;;;;;;4996219;28;20049;-82
2021/04/25 02:53:33;;;;;;;4.33;1.70;;;4.60;82.30;;;;;;5009775;28;20061;-81
2021/04/25 02:56:00;;;;;;;5.73;2.33;;;4.70;82.30;;;;;;5010353;28;20468;-82
2021/04/25 02:58:26;;;;;;;6.33;2.10;;;4.70;82.10;;;;;;4995645;28;20966;-81
2021/04/25 03:00:53;;;;;;;7.73;2.40;;;4.60;82.10;;;;;;4991943;28;20044;-81
2021/04/25 03:03:20;;;;;;;6.17;1.53;;;4.60;82.10;;;;;;5008090;28;20037;-80
2021/04/25 03:05:49;;;;;;;6.63;1.73;;;4.60;82.00;;;;;;5020074;28;20033;-80
2021/04/25 03:08:15;;;;;;;5.57;1.80;;;4.70;82.00;;;;;;4999826;28;20124;-81
2021/04/25 03:10:42;;;;;;;7.57;2.53;;;4.70;81.90;;;;;;4991084;28;20029;-80
2021/04/25 03:13:08;;;;;;;13.33;3.33;;;4.80;81.80;;;;;;5008187;28;20056;-81
2021/04/25 03:15:35;;;;;;;7.07;2.23;;;4.80;81.70;;;;;;5004740;28;20488;-83
2021/04/25 03:18:02;;;;;;;5.60;2.10;;;4.90;81.60;;;;;;4990253;28;20034;-82
2021/04/25 03:20:28;;;;;;;7.77;2.30;;;4.90;81.30;;;;;;5012758;28;20042;-81
2021/04/25 03:22:55;;;;;;;8.20;2.30;;;5.00;81.20;;;;;;5043012;28;20048;-81
2021/04/25 03:25:22;;;;;;;3.63;1.40;;;5.10;80.90;;;;;;5032695;28;20035;-79
2021/04/25 03:27:48;;;;;;;4.80;1.47;;;5.10;80.70;;;;;;5032773;28;20506;-81
2021/04/25 03:30:17;;;;;;;9.13;1.90;;;5.20;80.60;;;;;;5039190;28;20107;-81
2021/04/25 03:32:44;;;;;;;5.73;2.23;;;5.20;81.00;;;;;;5048648;28;20060;-82
2021/04/25 03:35:13;;;;;;;5.67;1.93;;;5.30;80.20;;;;;;5060725;28;20037;-81
2021/04/25 03:37:40;;;;;;;10.00;1.70;;;5.30;80.10;;;;;;5013805;28;20041;-80
2021/04/25 03:40:10;;;;;;;6.90;1.50;;;5.40;79.80;;;;;;5043628;28;20468;-81
2021/04/25 03:42:37;;;;;;;6.87;2.40;;;5.40;79.60;;;;;;5051703;28;20651;-81
2021/04/25 03:45:06;;;;;;;3.73;1.30;;;5.50;79.40;;;;;;5052902;28;20028;-80
2021/04/25 03:47:32;;;;;;;6.20;1.70;;;5.50;79.20;;;;;;5030488;28;20072;-81
2021/04/25 03:49:59;;;;;;;5.70;1.97;;;5.50;79.00;;;;;;4999487;28;20415;-80
2021/04/25 03:52:25;;;;;;;8.50;2.10;;;5.60;79.00;;;;;;5048324;28;21569;-81
2021/04/25 03:54:52;;;;;;;9.47;1.63;;;5.60;78.90;;;;;;5048826;28;20056;-80
2021/04/25 03:57:18;;;;;;;6.70;2.00;;;5.70;78.80;;;;;;5041345;28;20586;-80
2021/04/25 03:59:45;;;;;;;6.03;1.70;;;5.70;78.60;;;;;;5006733;28;20063;-80
2021/04/25 04:02:12;;;;;;;8.70;2.13;;;5.70;78.50;;;;;;5001995;28;20033;-81
2021/04/25 04:04:39;;;;;;;7.27;1.30;;;5.70;78.30;;;;;;4998259;28;20049;-80
2021/04/25 04:07:06;;;;;;;7.00;1.83;;;5.80;78.30;;;;;;5049673;28;20047;-80
2021/04/25 04:09:32;;;;;;;6.43;1.40;;;5.80;78.10;;;;;;5016035;28;20040;-80
2021/04/25 04:11:59;;;;;;;6.10;1.60;;;5.80;77.90;;;;;;5032123;28;20049;-81
2021/04/25 04:14:25;;;;;;;5.90;1.30;;;5.80;77.60;;;;;;5044411;28;20075;-81
2021/04/25 04:16:52;;;;;;;6.73;1.47;;;5.80;77.60;;;;;;5033223;28;20051;-80
2021/04/25 04:19:18;;;;;;;5.60;1.30;;;5.90;77.60;;;;;;5018860;28;20527;-81
2021/04/25 04:21:44;;;;;;;7.77;1.63;;;5.90;77.40;;;;;;5036047;28;20509;-81
2021/04/25 04:24:11;;;;;;;4.77;1.10;;;5.90;77.40;;;;;;5017106;28;20027;-81
2021/04/25 04:26:38;;;;;;;4.87;1.53;;;6.00;77.30;;;;;;5032502;28;20032;-82
2021/04/25 04:29:04;;;;;;;5.03;1.17;;;6.00;77.10;;;;;;5031315;28;20601;-80
2021/04/25 04:31:31;;;;;;;6.00;1.20;;;6.00;76.90;;;;;;5070288;28;20041;-80
2021/04/25 04:33:57;;;;;;;4.83;1.37;;;6.00;76.60;;;;;;5046453;28;20494;-82
2021/04/25 04:36:24;;;;;;;9.00;1.67;;;6.00;76.50;;;;;;5036831;28;20099;-80
2021/04/25 04:38:50;;;;;;;6.10;1.30;;;6.00;77.00;;;;;;5012742;28;20032;-83
2021/04/25 04:41:17;;;;;;;7.03;1.57;;;6.00;76.20;;;;;;5035462;28;20452;-79
2021/04/25 04:43:43;;;;;;;6.90;0.80;;;6.00;76.10;;;;;;5047096;28;20043;-80
2021/04/25 04:46:10;;;;;;;6.00;1.00;;;6.10;76.00;;;;;;5018658;28;20048;-80
2021/04/25 04:48:36;;;;;;;3.23;0.90;;;6.10;75.70;;;;;;5000446;28;20037;-79
2021/04/25 04:51:03;;;;;;;5.93;1.00;;;6.00;75.50;;;;;;5045461;28;20035;-79
2021/04/25 04:53:29;;;;;;;8.13;1.30;;;6.10;75.40;;;;;;5013296;28;20028;-80
2021/04/25 04:55:56;;;;;;;6.73;1.20;;;6.10;75.20;;;;;;5033118;28;20039;-80
2021/04/25 04:58:22;;;;;;;6.97;0.90;;;6.10;75.20;;;;;;5052926;28;20036;-80
2021/04/25 05:00:49;;;;;;;6.40;1.10;;;6.10;74.80;;;;;;4988659;28;20044;-81
2021/04/25 05:03:16;;;;;;;3.90;0.70;;;6.10;74.80;;;;;;5033073;28;20052;-80
2021/04/25 05:05:42;;;;;;;9.60;2.53;;;6.20;74.70;;;;;;5031378;28;20388;-79
2021/04/25 05:08:09;;;;;;;4.90;0.97;;;6.10;74.30;;;;;;5029473;28;20044;-81
2021/04/25 05:10:35;;;;;;;9.10;1.23;;;6.20;74.80;;;;;;5030338;28;20052;-80
2021/04/25 05:13:02;;;;;;;8.33;0.90;;;6.20;74.10;;;;;;5042840;28;20049;-80
2021/04/25 05:15:29;;;;;;;5.43;1.00;;;6.20;74.00;;;;;;5034058;28;20033;-81
2021/04/25 05:17:55;;;;;;;8.37;1.17;;;6.20;73.80;;;;;;5033692;28;20067;-80
2021/04/25 05:20:22;;;;;;;9.00;1.27;;;6.20;73.80;;;;;;5050518;28;20067;-81
2021/04/25 05:22:48;;;;;;;3.80;1.00;;;6.20;73.40;;;;;;4999558;28;21384;-81
2021/04/25 05:25:15;;;;;;;7.07;1.23;;;6.20;73.40;;;;;;4984432;28;20044;-80
2021/04/25 05:27:41;;;;;;;5.93;1.10;;;6.20;73.50;;;;;;5012586;28;20492;-80
2021/04/25 05:30:08;;;;;;;8.93;1.73;;;6.30;73.40;;;;;;5006571;28;20037;-80
2021/04/25 05:32:34;;;;;;;6.63;1.07;;;6.30;73.40;;;;;;4995524;28;20050;-80
2021/04/25 05:35:01;;;;;;;9.67;1.30;;;6.30;73.30;;;;;;5014306;28;20061;-81
2021/04/25 05:37:28;;;;;;;9.03;1.20;;;6.30;72.90;;;;;;4995283;28;20053;-81
2021/04/25 05:39:55;;;;;;;7.97;1.33;;;6.30;72.90;;;;;;4999579;28;20045;-80
2021/04/25 05:42:22;;;;;;;8.37;1.20;;;6.40;73.00;;;;;;4989940;28;20404;-84
2021/04/25 05:44:48;;;;;;;5.10;0.70;;;6.40;73.00;;;;;;5033201;28;20595;-84
2021/04/25 05:47:15;;;;;;;9.67;1.10;;;6.40;72.90;;;;;;5003173;28;20060;-81
2021/04/25 05:49:42;;;;;;;5.73;1.33;;;6.40;73.00;;;;;;5014425;28;20049;-81
2021/04/25 05:52:09;;;;;;;8.83;1.30;;;6.50;73.00;;;;;;4978931;28;20052;-81
2021/04/25 05:54:36;;;;;;;6.17;1.20;;;6.50;72.80;;;;;;5024600;28;20484;-81
2021/04/25 05:57:02;;;;;;;9.80;1.63;;;6.50;72.80;;;;;;5015566;28;20050;-81
2021/04/25 05:59:29;;;;;;;5.73;0.83;;;6.50;72.80;;;;;;5017276;28;20045;-80
2021/04/25 06:01:55;;;;;;;9.67;1.60;;;6.60;72.90;;;;;;5044500;28;20049;-83
2021/04/25 06:04:22;;;;;;;11.13;2.07;;;6.60;72.90;;;;;;5008204;28;20504;-83
2021/04/25 06:06:48;;;;;;;7.80;1.23;;;6.60;72.50;;;;;;5011634;28;20041;-83
2021/04/25 06:09:15;;;;;;;6.23;1.20;;;6.70;72.40;;;;;;4994932;28;20040;-81
2021/04/25 06:11:41;;;;;;;9.30;1.87;;;6.60;72.40;;;;;;5025036;28;20053;-80
2021/04/25 06:14:08;;;;;;;8.70;1.00;;;6.70;72.50;;;;;;5011853;28;20037;-81
2021/04/25 06:16:34;;;;;;;6.97;0.80;;;6.80;72.40;;;;;;4978669;28;20045;-81
2021/04/25 06:19:01;;;;;;;6.73;1.00;;;6.90;72.00;;;;;;4993897;28;20044;-80
2021/04/25 06:21:29;;;;;;;5.33;0.93;;;6.90;71.70;;;;;;4988757;28;20061;-81
2021/04/25 06:23:56;;;;;;;8.60;1.00;;;7.00;71.30;;;;;;5011259;28;20039;-81
2021/04/25 06:26:23;;;;;;;9.43;0.87;;;6.90;71.00;;;;;;5017928;28;20559;-81
2021/04/25 06:28:54;;;;;;;7.30;0.83;;;6.90;71.00;;;;;;4995186;28;20030;-81
2021/04/25 06:31:25;;;;;;;6.20;0.70;;;7.00;71.10;;;;;;4978211;28;20485;-81
2021/04/25 06:33:52;;;;;;;6.43;0.67;;;7.00;71.20;;;;;;4977063;28;20400;-81
2021/04/25 06:36:18;;;;;;;4.47;0.73;;;7.10;70.80;;;;;;5010243;28;20829;-81
2021/04/25 06:38:45;;;;;;;9.77;0.73;;;7.10;71.00;;;;;;5010364;28;20045;-81
2021/04/25 06:41:11;;;;;;;5.97;0.70;;;7.20;71.00;;;;;;4994134;28;20056;-81
2021/04/25 06:43:38;;;;;;;3.63;0.50;;;7.20;70.70;;;;;;5008595;28;20492;-84
2021/04/25 06:46:04;;;;;;;4.53;0.70;;;7.30;70.80;;;;;;5026919;28;20046;-81
2021/04/25 06:48:31;;;;;;;6.20;0.90;;;7.30;70.80;;;;;;5009674;28;20515;-81
2021/04/25 06:50:57;;;;;;;10.63;1.40;;;7.40;70.60;;;;;;4994227;28;20042;-84
2021/04/25 06:53:23;;;;;;;7.27;1.23;;;7.50;70.50;;;;;;5008423;28;20056;-84
2021/04/25 06:55:51;;;;;;;11.47;0.90;;;7.50;69.90;;;;;;5030671;28;20045;-84
2021/04/25 06:58:17;;;;;;;8.80;0.80;;;7.60;69.60;;;;;;4994568;28;20412;-84
2021/04/25 07:00:44;;;;;;;7.53;0.70;;;7.60;69.30;;;;;;5029219;28;20065;-87
2021/04/25 07:03:10;;;;;;;9.70;1.00;;;7.60;69.00;;;;;;4992638;28;20053;-86
2021/04/25 07:05:38;;;;;;;7.90;0.80;;;7.60;68.60;;;;;;5026138;28;20045;-84
2021/04/25 07:08:06;;;;;;;6.30;0.60;;;7.70;68.90;;;;;;5011668;28;20041;-84
2021/04/25 07:10:32;;;;;;;6.20;1.03;;;7.70;68.30;;;;;;5011762;28;20037;-84
2021/04/25 07:12:59;;;;;;;5.73;0.50;;;7.80;68.20;;;;;;4992035;28;20045;-85
2021/04/25 07:15:25;;;;;;;14.37;1.43;;;7.80;67.80;;;;;;5029921;28;20052;-84
2021/04/25 07:17:52;;;;;;;7.93;0.50;;;7.80;67.60;;;;;;4981509;28;20042;-84
2021/04/25 07:20:19;;;;;;;5.93;0.50;;;7.80;67.60;;;;;;5026272;28;20072;-84
2021/04/25 07:22:45;;;;;;;11.47;0.80;;;7.80;67.40;;;;;;4991287;28;20053;-84
2021/04/25 07:25:12;;;;;;;7.00;0.70;;;7.90;67.40;;;;;;5031781;28;20057;-84
2021/04/25 07:27:39;;;;;;;7.07;0.60;;;7.90;67.20;;;;;;5012836;28;20044;-84
2021/04/25 07:30:07;;;;;;;4.67;0.50;;;7.90;67.20;;;;;;5029332;28;20037;-84
2021/04/25 07:32:34;;;;;;;5.53;0.60;;;8.00;66.90;;;;;;5000197;28;20048;-84
2021/04/25 07:35:01;;;;;;;7.83;0.60;;;8.00;67.10;;;;;;5030020;28;20044;-84
2021/04/25 07:37:28;;;;;;;10.47;0.80;;;8.00;67.20;;;;;;5027750;28;20041;-85
2021/04/25 07:39:54;;;;;;;9.70;0.70;;;8.00;67.30;;;;;;5031138;28;20040;-85
2021/04/25 07:42:21;;;;;;;7.07;0.90;;;8.10;67.10;;;;;;5013719;28;20056;-84
2021/04/25 07:44:47;;;;;;;6.53;0.70;;;8.10;67.40;;;;;;5013260;28;20060;-84
2021/04/25 07:47:14;;;;;;;7.50;0.70;;;8.30;67.50;;;;;;4995319;28;20033;-84
2021/04/25 07:49:40;;;;;;;8.27;0.50;;;8.40;66.80;;;;;;5033826;28;20041;-84
2021/04/25 07:52:07;;;;;;;12.40;0.60;;;8.40;66.80;;;;;;5046475;28;20057;-84
2021/04/25 07:54:34;;;;;;;7.60;0.60;;;8.50;66.80;;;;;;5012078;28;20831;-84
2021/04/25 07:57:00;;;;;;;8.85;1.10;;;8.60;66.60;;;;;;5021763;28;20036;-84
2021/04/25 07:59:29;;;;;;;13.15;1.40;;;8.70;66.10;;;;;;5027351;28;20049;-85
2021/04/25 08:02:00;;;;;;;7.53;1.47;;;8.70;65.80;;;;;;5032068;28;20144;-85
2021/04/25 08:04:26;;;;;;;7.72;0.82;;;8.60;65.90;;;;;;5027902;28;20029;-85
2021/04/25 08:06:53;;;;;;;6.67;0.50;;;8.60;66.20;;;;;;5048783;28;20399;-84
2021/04/25 08:09:20;;;;;;;6.28;0.57;;;8.60;66.20;;;;;;5047709;28;20052;-85
2021/04/25 08:11:47;;;;;;;10.63;1.00;;;8.60;66.40;;;;;;5045360;28;20120;-84
2021/04/25 08:14:13;;;;;;;6.78;0.60;;;8.70;66.50;;;;;;5034144;28;20033;-85
2021/04/25 08:16:39;;;;;;;7.65;1.13;;;8.70;65.90;;;;;;5031139;28;20399;-84
2021/04/25 08:19:06;;;;;;;5.97;0.60;;;8.80;65.70;;;;;;5044380;28;20052;-85
2021/04/25 08:21:34;;;;;;;5.70;0.88;;;9.00;65.00;;;;;;5040098;28;20053;-85
2021/04/25 08:24:01;;;;;;;8.00;0.73;;;9.10;64.90;;;;;;5008866;28;20507;-84
2021/04/25 08:26:27;;;;;;;5.68;0.40;;;9.10;64.80;;;;;;4994344;28;20033;-84
2021/04/25 08:28:54;;;;;;;5.68;0.65;;;9.20;64.50;;;;;;4979269;28;20029;-85
2021/04/25 08:31:21;;;;;;;5.93;0.70;;;9.30;63.70;;;;;;5010401;28;20038;-85
2021/04/25 08:33:48;;;;;;;5.70;0.50;;;9.40;63.80;;;;;;5005534;28;20041;-85
2021/04/25 08:36:15;;;;;;;6.82;0.90;;;9.50;63.40;;;;;;5010240;28;20061;-84
2021/04/25 08:38:42;;;;;;;7.40;0.90;;;9.60;62.60;;;;;;5005248;28;20397;-85
2021/04/25 08:41:14;;;;;;;9.80;1.02;;;9.60;62.60;;;;;;5009063;28;20053;-85
2021/04/25 08:43:42;;;;;;;8.65;0.80;;;9.70;63.10;;;;;;5007297;28;20124;-84
2021/04/25 08:46:10;;;;;;;7.35;0.63;;;9.80;62.30;;;;;;5010409;28;20042;-85
2021/04/25 08:48:36;;;;;;;4.95;1.05;;;9.80;62.10;;;;;;4993494;28;20033;-85
2021/04/25 08:51:03;;;;;;;8.52;0.80;;;9.90;61.70;;;;;;5004334;28;20494;-85
2021/04/25 08:53:31;;;;;;;6.63;0.45;;;9.90;61.20;;;;;;4996419;28;20038;-87
2021/04/25 08:55:57;;;;;;;7.13;0.65;;;9.90;61.00;;;;;;4999315;28;20408;-85
2021/04/25 08:58:24;;;;;;;4.78;0.52;;;10.00;61.10;;;;;;5012672;28;20037;-84
2021/04/25 09:00:50;;;;;;;6.65;0.80;;;10.10;60.90;;;;;;4997076;28;20048;-86
2021/04/25 09:03:17;;;;;;;5.30;0.73;;;10.30;60.50;;;;;;5026955;28;20404;-85
2021/04/25 09:05:44;;;;;;;7.70;0.70;;;10.40;59.90;;;;;;4979393;28;20041;-86
2021/04/25 09:08:11;;;;;;;3.20;0.60;;;10.50;59.70;;;;;;5028244;28;20060;-86
2021/04/25 09:10:43;;;;;;;8.65;1.00;;;10.60;59.80;;;;;;5016277;28;20518;-85
2021/04/25 09:13:22;;;;;;;5.00;0.70;;;10.70;59.30;;;;;;4994177;28;20068;-86
2021/04/25 09:15:52;;;;;;;7.28;0.80;;;10.70;58.40;;;;;;5015845;28;20036;-85
2021/04/25 09:18:31;;;;;;;9.07;0.63;;;10.70;58.60;;;;;;5046417;28;20041;-85
2021/04/25 09:21:11;;;;;;;6.13;0.60;;;10.70;58.70;;;;;;5030691;28;20052;-85
2021/04/25 09:23:38;;;;;;;7.05;0.60;;;10.70;58.40;;;;;;5030611;28;20044;-85
2021/04/25 09:26:06;;;;;;;8.38;0.73;;;10.80;58.20;;;;;;5042493;28;20040;-84
2021/04/25 09:28:34;;;;;;;6.90;0.57;;;10.90;57.80;;;;;;5032458;28;20063;-86
2021/04/25 09:31:14;;;;;;;7.00;0.60;;;10.90;57.00;;;;;;5035825;28;20036;-86
2021/04/25 09:33:54;;;;;;;7.40;0.88;;;11.10;56.80;;;;;;5014274;28;20037;-83
2021/04/25 09:36:28;;;;;;;6.18;0.75;;;11.30;57.30;;;;;;5068348;28;20041;-83
2021/04/25 09:39:11;;;;;;;6.53;0.80;;;11.50;56.40;;;;;;5030466;28;20040;-82
2021/04/25 09:41:39;;;;;;;11.10;0.60;;;11.60;55.80;;;;;;5068704;28;20039;-79
2021/04/25 09:44:07;;;;;;;5.53;0.75;;;11.60;55.80;;;;;;5017667;28;20032;-79
2021/04/25 09:46:56;;;;;;;6.63;0.60;;;11.70;55.70;;;;;;5050336;28;20403;-80
2021/04/25 09:49:47;;;;;;;8.57;0.88;;;11.70;55.30;;;;;;5049668;28;20475;-79
2021/04/25 09:52:27;;;;;;;10.73;0.60;;;11.80;54.70;;;;;;5066512;28;20106;-84
2021/04/25 09:55:22;;;;;;;7.80;1.00;;;11.80;54.10;;;;;;5033114;28;20037;-86
2021/04/25 09:57:52;;;;;;;7.60;0.90;;;11.80;53.60;;;;;;5016359;28;20070;-84
2021/04/25 10:00:20;;;;;;;6.55;1.17;;;11.60;54.10;;;;;;5018492;28;20399;-85
2021/04/25 10:02:58;;;;;;;5.57;0.45;;;11.80;54.40;;;;;;5001505;28;20041;-87
2021/04/25 10:05:27;;;;;;;4.57;0.77;;;11.90;54.00;;;;;;5048442;28;20087;-83
2021/04/25 10:07:54;;;;;;;4.80;0.75;;;11.90;53.80;;;;;;5032358;28;20040;-82
2021/04/25 10:10:20;;;;;;;5.28;0.60;;;12.00;53.80;;;;;;5036243;28;20475;-81
2021/04/25 10:12:48;;;;;;;4.18;0.75;;;12.10;54.10;;;;;;5015466;28;20055;-86
2021/04/25 10:15:17;;;;;;;7.78;0.90;;;12.20;53.80;;;;;;5012725;28;20124;-84
2021/04/25 10:17:49;;;;;;;8.05;0.80;;;12.30;53.20;;;;;;5031765;28;21299;-81
2021/04/25 10:20:17;;;;;;;6.97;1.13;;;12.30;53.40;;;;;;5052077;28;20043;-81
2021/04/25 10:22:47;;;;;;;8.82;1.40;;;12.40;53.40;;;;;;5037267;28;20060;-81
2021/04/25 10:25:17;;;;;;;7.25;0.77;;;12.60;52.70;;;;;;5049862;28;20025;-79
2021/04/25 10:27:58;;;;;;;5.25;0.73;;;12.60;52.30;;;;;;5047544;28;20075;-83
2021/04/25 10:30:34;;;;;;;5.55;1.05;;;12.70;51.80;;;;;;5047370;28;20044;-83
2021/04/25 10:33:01;;;;;;;6.18;0.57;;;12.50;51.70;;;;;;5026799;28;20044;-83
2021/04/25 10:35:33;;;;;;;6.82;0.73;;;12.50;52.20;;;;;;5031754;28;20053;-83
2021/04/25 10:38:02;;;;;;;5.07;0.50;;;12.60;52.20;;;;;;5013267;28;20051;-82
2021/04/25 10:40:39;;;;;;;5.90;0.60;;;12.70;52.30;;;;;;5052646;28;20049;-83
2021/04/25 10:43:11;;;;;;;4.60;0.50;;;12.80;52.10;;;;;;5028755;28;20044;-83
2021/04/25 10:45:57;;;;;;;4.70;0.70;;;13.00;51.80;;;;;;5032032;28;20482;-83
2021/04/25 10:48:32;;;;;;;6.13;0.52;;;13.30;51.00;;;;;;5033377;28;20049;-83
2021/04/25 10:51:17;;;;;;;4.28;0.60;;;13.40;50.20;;;;;;5071819;28;20037;-83
2021/04/25 10:53:48;;;;;;;8.20;0.60;;;13.20;49.50;;;;;;5049847;28;20056;-83
2021/04/25 10:56:14;;;;;;;6.45;0.80;;;13.20;49.80;;;;;;5056356;28;20053;-83
2021/04/25 10:58:45;;;;;;;6.93;0.60;;;13.20;49.90;;;;;;5058751;28;20400;-83
2021/04/25 11:01:38;;;;;;;9.13;0.63;;;13.30;50.10;;;;;;5049691;28;20822;-83
2021/04/25 11:04:05;;;;;;;3.20;0.45;;;13.70;48.90;;;;;;5028015;28;20103;-83
2021/04/25 11:06:32;;;;;;;6.85;0.65;;;14.10;48.60;;;;;;5018547;28;20037;-80
2021/04/25 11:08:58;;;;;;;7.22;0.70;;;14.80;49.00;;;;;;5048002;28;20045;-81
2021/04/25 11:11:39;;;;;;;6.57;0.70;;;15.60;47.40;;;;;;5049840;28;20052;-80
2021/04/25 11:14:07;;;;;;;4.93;0.60;;;16.00;44.80;;;;;;5050605;28;20044;-79
2021/04/25 11:16:35;;;;;;;8.63;1.15;;;16.20;44.20;;;;;;5034738;28;20037;-80
2021/04/25 11:19:07;;;;;;;6.88;0.73;;;16.10;42.80;;;;;;5029575;28;20028;-80
2021/04/25 11:24:05;;;;;;;5.00;0.80;;;16.70;43.30;;;;;;5067823;28;20047;-80
2021/04/25 11:29:07;;;;;;;4.90;0.77;;;17.40;41.00;;;;;;5036842;28;20466;-80
2021/04/25 11:31:57;;;;;;;4.00;0.43;;;17.70;41.30;;;;;;5067149;28;20059;-80
2021/04/25 11:34:27;;;;;;;4.20;0.68;;;17.60;40.00;;;;;;5066833;28;20040;-80
2021/04/25 11:37:15;;;;;;;5.30;0.70;;;17.10;39.90;;;;;;5062772;28;20029;-81
2021/04/25 11:39:44;;;;;;;5.90;0.88;;;16.70;41.20;;;;;;5044963;28;20028;-80
2021/04/25 11:42:13;;;;;;;5.95;0.60;;;16.30;41.20;;;;;;5037922;28;20028;-80
2021/04/25 11:44:42;;;;;;;5.65;1.40;;;16.40;42.60;;;;;;5057641;28;20040;-80
2021/04/25 11:47:12;;;;;;;3.35;0.60;;;17.10;42.00;;;;;;5042602;28;20041;-80
2021/04/25 11:49:39;;;;;;;6.30;0.85;;;17.50;39.50;;;;;;5068856;28;20044;-80
2021/04/25 11:52:20;;;;;;;6.40;0.77;;;17.10;39.80;;;;;;5067962;28;20501;-81
2021/04/25 11:54:49;;;;;;;8.52;0.70;;;16.70;40.10;;;;;;5053074;28;20048;-80
2021/04/25 11:57:22;;;;;;;3.92;0.60;;;16.30;41.50;;;;;;5049686;28;20384;-80
2021/04/25 11:59:56;;;;;;;4.93;0.60;;;16.70;41.40;;;;;;5068575;28;20032;-79
2021/04/25 12:02:25;;;;;;;4.50;0.88;;;17.20;38.70;;;;;;5047463;28;20032;-84
2021/04/25 12:04:56;;;;;;;7.88;0.65;;;17.30;39.60;;;;;;5049558;28;20055;-82
2021/04/25 12:07:35;;;;;;;5.35;0.60;;;17.70;39.50;;;;;;5066269;28;20040;-81
2021/04/25 12:10:17;;;;;;;5.13;0.77;;;18.40;37.80;;;;;;5073595;28;20051;-81
2021/04/25 12:13:14;;;;;;;3.53;0.60;;;18.90;36.50;;;;;;5069687;28;20079;-82
2021/04/25 12:15:49;;;;;;;4.13;0.50;;;19.40;36.90;;;;;;5033350;28;20051;-81
2021/04/25 12:18:23;;;;;;;6.90;1.10;;;19.90;35.90;;;;;;5053726;28;20051;-80
2021/04/25 12:20:53;;;;;;;3.42;0.80;;;20.40;34.20;;;;;;5073734;28;20036;-80
2021/04/25 12:23:22;;;;;;;6.78;0.88;;;20.30;34.00;;;;;;5051248;28;20050;-85
2021/04/25 12:25:50;;;;;;;4.40;0.80;;;19.90;34.00;;;;;;5066583;28;20056;-83
2021/04/25 12:28:17;;;;;;;5.00;0.60;;;19.70;34.70;;;;;;5051239;28;20032;-83
2021/04/25 12:30:55;;;;;;;4.72;1.33;;;19.90;33.90;;;;;;5036100;28;20055;-83
2021/04/25 12:33:21;;;;;;;4.85;0.70;;;20.40;34.40;;;;;;5049513;28;20052;-83
2021/04/25 12:35:51;;;;;;;4.65;0.60;;;20.80;33.80;;;;;;5062896;28;20037;-83
2021/04/25 12:38:20;;;;;;;5.30;0.70;;;21.20;33.00;;;;;;5043722;28;20060;-82
2021/04/25 12:41:00;;;;;;;4.03;0.70;;;21.00;32.70;;;;;;5065739;28;20036;-82
2021/04/25 12:43:46;;;;;;;3.83;0.85;;;20.10;33.40;;;;;;5017542;28;20506;-79
2021/04/25 12:46:20;;;;;;;4.30;0.65;;;19.20;35.50;;;;;;5050349;28;20578;-78
2021/04/25 12:48:56;;;;;;;3.53;0.60;;;19.60;36.10;;;;;;5029629;28;20033;-82
2021/04/25 12:51:27;;;;;;;4.45;0.70;;;20.30;34.50;;;;;;5049522;28;20037;-82
2021/04/25 12:53:56;;;;;;;6.25;0.50;;;20.50;34.00;;;;;;5051435;28;20044;-82
2021/04/25 12:56:34;;;;;;;5.05;0.70;;;20.00;33.60;;;;;;5033318;28;20127;-82
2021/04/25 12:59:14;;;;;;;3.53;0.50;;;19.60;35.20;;;;;;5030918;28;20422;-82
2021/04/25 13:01:43;;;;;;;5.07;0.60;;;20.40;35.10;;;;;;5049141;28;20048;-80
2021/04/25 13:04:28;;;;;;;3.67;0.70;;;21.70;33.20;;;;;;5039847;28;20059;-81
2021/04/25 13:07:26;;;;;;;2.50;0.60;;;22.50;31.60;;;;;;5036291;28;20036;-80